HEGS weather

Jiyanklis Air Base
Jiyanklis, Beheira Governorate, Egypt

Public forecast

Using degrees Celsius for public forecast. Weather courtesy of forecast.io.

Closest aviation weather report (METAR) to Jiyanklis Air Base

Closest report is El Nouzha Airport, 25.2 nm (46.6 km) NNW. Retrieved 2020/07/16 00:00 UTC (54 minutes ago):

HEAX 160000Z 31006KT 9999 FEW020 25/20 Q1010 NOSIG

Closest aviation forecast (TAF) to Jiyanklis Air Base

Closest forecast is El Nouzha Airport, 25.2 nm (46.6 km) NNW. Retrieved 2020-07-16 00:40 UTC (14 minutes ago):

TAF HEAX 152300Z 1600/1706 33010KT 9999 SCT020